Accueil
METAR-TAF:

METAR-TAF

Aéroports :

Base aérienne 116 Luxeuil-Saint Sauveur

Luxeuil-les-Bains, France

latitude: 47-47N, longitude: 006-21E, altitude: 278 m

Observation

Le bulletin a été fait il y a 21 minutes, à 20:30 UTC
Vent 1 kt de direction variable
Température 12°C
Humidité 94%
Pression 1029 hPa
Visibilité 10 km ou plus

METAR: LFSX 062030Z AUTO VRB01KT 9999 ////// 12/11 Q1029

Heure: 22:51 (20:51 UTC)

Prévision

Le bulletin a été fait il y a 6 heures et 51 minutes, à 14:00 UTC
Prévision valable du 06 à 15 UTC au 07 à 15 UTC
Vent 5 kt de nord-ouest
Visibilité 10 km ou plus
Nuages fragmentés à une hauteur de 3000 ft
Temporairement
du 07 à 00 UTC au 07 à 08 UTC
Visibilité: 3000 m
brume
Probabilité 30% :
Temporairement
du 07 à 00 UTC au 07 à 07 UTC
Visibilité: 0600 m
brouillard

TAF: LFSX 061400Z 0615/0715 31005KT 9999 BKN030 TEMPO 0700/0708 3000 BR PROB30 TEMPO 0700/0707 0600 FG

Observations et prévisions météorologiques de plus de 4000 aéroports (messages METAR et TAF).

Les stations disponibles sont représentées par des disques jaunes et rouges sur la carte.

Passer la souris dessus pour voir le nom de la station.

Cliquer dessus pour voir les observations et prévisions météorologiques.

Pour changer de carte: cliquez sur les boutons verts avec une croix noire pour zoomer, sur le bouton vert avec un tiret pour effectuer un zoom arrière, ou sur les flèches vertes pour les cartes adjacentes.


METAR-TAF: